Terminal Aerodrome Forecast
Issued by NWS

Home | Current Version | Previous Version | Text Only | Print | Product List | Glossary On
Versions: 1 2 3 4 5 6 7 8 9 10 11 12
865
FTUS43 KGRR 212340
TAFAZO
TAF
KAZO 212340Z 2200/2224 15007KT P6SM BKN100 WS020/18035KT
     FM221400 17012G21KT P6SM SCT035
     FM222200 18014G21KT P6SM VCSH BKN100=

USA.gov is the U.S. government's official web portal to all federal, state and local government web resources and services.